METAR AND TAF INFORMATION
METAR FOR SVSA
ADDS - METARS form results

(1250 UTC 24 October 2020)
Data provider http://aviationweather.gov/metar/data/
 
Forecast for: SVSA (SAN ANTONIO TACH, VE)
Text: TAF SVSA 241000Z 2412/2512 00000KT 9999 SCT020 TX33/2419Z TN21/2408Z
Forecast period: 1200 UTC 24 October 2020 to 1200 UTC 25 October 2020
Forecast type: FROM: standard forecast or significant change
Winds: calm
Visibility: 6 or more miles (10+ km)
Ceiling: at least 12,000 feet AGL
Clouds: scattered clouds at 2000 feet AGL
Weather: no significant weather forecast for this period
Text: TEMPO 2413/2414 09015KT 9000 DZ BKN020
Forecast period: 1300 to 1400 UTC 24 October 2020
Forecast type: TEMPORARY: The following changes expected for less than half the time period
Winds: from the E (90 degrees) at 17 MPH (15 knots; 7.7 m/s)
Visibility: 6 miles (9 km)
Ceiling: 2000 feet AGL
Clouds: broken clouds at 2000 feet AGL
Weather: DZ  (moderate drizzle)

 AIRPORT MAP

 RUNWAY INFORMATION
Runway 17 Runway length 6135 ft Runway width 131 ft
Runway elevation 0 ft Runway displaced threshold 0 ft Runway heading 166
Runway 35 Runway length 6135 ft Runway width 131 ft
Runway elevation 0 ft Runway displaced threshold 0 ft Runway heading 346

 AIRPORT FREQUENCIES
Type GND Name GND Frequency 121.9 MHZ
Type TWR Name TWR Frequency 118.5 MHZ

 AIRPORT NEAR NAVIGATION AIDS